Time,TemperatureF,DewpointF,PressureIn,WindDirection,WindDirectionDegrees,WindSpeedMPH,WindSpeedGustMPH,Humidity,HourlyPrecipIn,Conditions,Clouds,dailyrainin,SolarRadiationWatts/m^2,SoftwareType,DateUTC
2013-01-14 00:00:00,28.3,24.1,30.08,West,270,8.0,20.0,84,0.00,,,-99.99,0,WeatherLink 6.0.0,2013-01-14 05:00:00,
2013-01-14 00:01:00,29.5,26.1,30.05,SSW,213,4.0,12.0,87,0.00,,,0.00,0,Wunderground v.1.15,2013-01-14 05:01:00,
2013-01-14 00:02:00,29.5,26.1,30.05,West,270,8.0,12.0,87,0.00,,,0.00,0,Wunderground v.1.15,2013-01-14 05:02:00,
2013-01-14 00:04:00,29.4,26.0,30.05,SW,234,5.0,12.0,87,0.00,,,0.00,0,Wunderground v.1.15,2013-01-14 05:04:00,
2013-01-14 00:10:00,29.4,26.0,30.05,SSW,205,4.0,7.0,87,0.00,,,0.00,0,Wunderground v.1.15,2013-01-14 05:10:00,
2013-01-14 00:15:00,29.3,25.9,30.05,WSW,245,5.0,8.0,87,0.00,,,0.00,0,Wunderground v.1.15,2013-01-14 05:15:00,
2013-01-14 00:21:00,29.0,25.3,30.05,West,269,5.0,6.0,86,0.00,,,0.00,0,Wunderground v.1.15,2013-01-14 05:21:00,
2013-01-14 00:27:00,28.9,25.2,30.05,WSW,250,4.0,14.0,86,0.00,,,0.00,0,Wunderground v.1.15,2013-01-14 05:27:00,
2013-01-14 00:30:00,27.7,23.5,30.09,West,270,8.0,22.0,84,0.00,,,-99.99,0,WeatherLink 6.0.0,2013-01-14 05:30:00,
2013-01-14 00:32:00,28.7,25.0,30.06,NW,309,9.0,11.0,86,0.00,,,0.00,0,Wunderground v.1.15,2013-01-14 05:32:00,
2013-01-14 00:37:00,28.6,24.9,30.06,WSW,252,3.0,11.0,86,0.00,,,0.00,0,Wunderground v.1.15,2013-01-14 05:37:00,
2013-01-14 00:42:00,28.5,24.6,30.06,WSW,257,7.0,10.0,85,0.00,,,0.00,0,Wunderground v.1.15,2013-01-14 05:42:00,
2013-01-14 00:48:00,28.3,24.1,30.06,WNW,284,9.0,19.0,84,0.00,,,0.00,0,Wunderground v.1.15,2013-01-14 05:48:00,
2013-01-14 00:53:00,28.1,24.2,30.07,WSW,251,11.0,13.0,85,0.00,,,0.00,0,Wunderground v.1.15,2013-01-14 05:53:00,
2013-01-14 00:58:00,28.0,24.1,30.07,WSW,252,10.0,13.0,85,0.00,,,0.00,0,Wunderground v.1.15,2013-01-14 05:58:00,
2013-01-14 01:00:00,27.6,24.0,30.10,West,270,6.0,17.0,86,0.00,,,-99.99,0,WeatherLink 6.0.0,2013-01-14 06:00:00,
2013-01-14 01:04:00,27.9,23.7,30.08,WSW,257,3.0,13.0,84,0.00,,,0.00,0,Wunderground v.1.15,2013-01-14 06:04:00,
2013-01-14 01:10:00,27.7,23.5,30.08,West,273,17.0,17.0,84,0.00,,,0.00,0,Wunderground v.1.15,2013-01-14 06:10:00,
2013-01-14 01:16:00,27.6,23.4,30.08,SW,223,8.0,19.0,84,0.00,,,0.00,0,Wunderground v.1.15,2013-01-14 06:16:00,
2013-01-14 01:21:00,27.6,23.4,30.09,SW,227,5.0,9.0,84,0.00,,,0.00,0,Wunderground v.1.15,2013-01-14 06:21:00,
2013-01-14 01:27:00,27.6,23.4,30.09,West,281,5.0,13.0,84,0.00,,,0.00,0,Wunderground v.1.15,2013-01-14 06:27:00,
2013-01-14 01:30:00,27.1,22.0,30.12,West,270,8.0,22.0,81,0.00,,,-99.99,0,WeatherLink 6.0.0,2013-01-14 06:30:00,
2013-01-14 01:32:00,27.6,23.4,30.09,WSW,246,6.0,9.0,84,0.00,,,0.00,0,Wunderground v.1.15,2013-01-14 06:32:00,
2013-01-14 01:37:00,27.6,23.7,30.09,WNW,283,8.0,10.0,85,0.00,,,0.00,0,Wunderground v.1.15,2013-01-14 06:37:00,
2013-01-14 01:43:00,27.6,23.7,30.09,West,270,9.0,10.0,85,0.00,,,0.00,0,Wunderground v.1.15,2013-01-14 06:43:00,
2013-01-14 01:48:00,27.6,23.7,30.09,WSW,248,5.0,10.0,85,0.00,,,0.00,0,Wunderground v.1.15,2013-01-14 06:48:00,
2013-01-14 01:53:00,27.6,24.0,30.10,WSW,246,8.0,11.0,86,0.00,,,0.00,0,Wunderground v.1.15,2013-01-14 06:53:00,
2013-01-14 01:58:00,27.6,23.7,30.10,WSW,244,4.0,11.0,85,0.00,,,0.00,0,Wunderground v.1.15,2013-01-14 06:58:00,
2013-01-14 02:00:00,26.3,21.6,30.15,WSW,247,7.0,20.0,82,0.00,,,-99.99,0,WeatherLink 6.0.0,2013-01-14 07:00:00,
2013-01-14 02:03:00,27.7,24.1,30.10,West,259,3.0,14.0,86,0.00,,,0.00,0,Wunderground v.1.15,2013-01-14 07:03:00,
2013-01-14 02:08:00,27.4,23.2,30.11,WNW,292,12.0,16.0,84,0.00,,,0.00,0,Wunderground v.1.15,2013-01-14 07:08:00,
2013-01-14 02:13:00,27.2,22.7,30.11,WSW,240,7.0,14.0,83,0.00,,,0.00,0,Wunderground v.1.15,2013-01-14 07:13:00,
2013-01-14 02:18:00,27.1,22.3,30.12,West,279,10.0,22.0,82,0.00,,,0.00,0,Wunderground v.1.15,2013-01-14 07:18:00,
2013-01-14 02:23:00,26.8,21.8,30.13,NW,306,11.0,21.0,81,0.00,,,0.00,0,Wunderground v.1.15,2013-01-14 07:23:00,
2013-01-14 02:28:00,26.6,21.6,30.13,SSW,207,11.0,21.0,81,0.00,,,0.00,0,Wunderground v.1.15,2013-01-14 07:28:00,
2013-01-14 02:30:00,25.9,21.2,30.18,WSW,247,7.0,19.0,82,0.00,,,-99.99,0,WeatherLink 6.0.0,2013-01-14 07:30:00,
2013-01-14 02:33:00,26.6,21.8,30.13,SW,229,7.0,14.0,82,0.00,,,0.00,0,Wunderground v.1.15,2013-01-14 07:33:00,
2013-01-14 02:38:00,26.4,21.7,30.13,WSW,246,4.0,16.0,82,0.00,,,0.00,0,Wunderground v.1.15,2013-01-14 07:38:00,
2013-01-14 02:43:00,26.3,21.6,30.14,West,264,9.0,13.0,82,0.00,,,0.00,0,Wunderground v.1.15,2013-01-14 07:43:00,
2013-01-14 02:48:00,26.2,21.5,30.14,West,280,7.0,15.0,82,0.00,,,0.00,0,Wunderground v.1.15,2013-01-14 07:48:00,
2013-01-14 02:53:00,26.1,21.4,30.14,WSW,244,11.0,15.0,82,0.00,,,0.00,0,Wunderground v.1.15,2013-01-14 07:53:00,
2013-01-14 02:58:00,26.0,21.5,30.15,WNW,287,5.0,20.0,83,0.00,,,0.00,0,Wunderground v.1.15,2013-01-14 07:58:00,
2013-01-14 03:00:00,25.3,21.1,30.19,West,270,7.0,18.0,84,0.00,,,-99.99,0,WeatherLink 6.0.0,2013-01-14 08:00:00,
2013-01-14 03:03:00,25.9,21.4,30.15,West,267,6.0,13.0,83,0.00,,,0.00,0,Wunderground v.1.15,2013-01-14 08:03:00,
2013-01-14 03:08:00,26.0,21.5,30.16,WSW,252,6.0,15.0,83,0.00,,,0.00,0,Wunderground v.1.15,2013-01-14 08:08:00,
2013-01-14 03:13:00,26.0,21.5,30.16,WSW,240,8.0,11.0,83,0.00,,,0.00,0,Wunderground v.1.15,2013-01-14 08:13:00,
2013-01-14 03:18:00,25.9,21.2,30.17,WSW,237,3.0,14.0,82,0.00,,,0.00,0,Wunderground v.1.15,2013-01-14 08:18:00,
2013-01-14 03:23:00,25.8,21.1,30.17,West,271,13.0,18.0,82,0.00,,,0.00,0,Wunderground v.1.15,2013-01-14 08:23:00,
2013-01-14 03:28:00,25.6,20.9,30.18,WSW,258,6.0,18.0,82,0.00,,,0.00,0,Wunderground v.1.15,2013-01-14 08:28:00,
2013-01-14 03:30:00,24.9,21.0,30.20,West,270,6.0,15.0,85,0.00,,,-99.99,0,WeatherLink 6.0.0,2013-01-14 08:30:00,
2013-01-14 03:33:00,25.5,20.8,30.18,WSW,258,8.0,18.0,82,0.00,,,0.00,0,Wunderground v.1.15,2013-01-14 08:33:00,
2013-01-14 03:38:00,25.4,21.0,30.19,West,263,13.0,18.0,83,0.00,,,0.00,0,Wunderground v.1.15,2013-01-14 08:38:00,
2013-01-14 03:43:00,25.3,20.9,30.19,West,267,4.0,12.0,83,0.00,,,0.00,0,Wunderground v.1.15,2013-01-14 08:43:00,
2013-01-14 03:48:00,25.2,20.8,30.19,SW,236,6.0,16.0,83,0.00,,,0.00,0,Wunderground v.1.15,2013-01-14 08:48:00,
2013-01-14 03:53:00,25.2,20.8,30.19,West,274,2.0,14.0,83,0.00,,,0.00,0,Wunderground v.1.15,2013-01-14 08:53:00,
2013-01-14 03:58:00,25.2,21.0,30.19,WNW,290,3.0,14.0,84,0.00,,,0.00,0,Wunderground v.1.15,2013-01-14 08:58:00,
2013-01-14 04:00:00,24.7,20.6,30.21,West,270,5.0,15.0,84,0.00,,,-99.99,0,WeatherLink 6.0.0,2013-01-14 09:00:00,
2013-01-14 04:03:00,25.1,20.9,30.19,WSW,244,3.0,16.0,84,0.00,,,0.00,0,Wunderground v.1.15,2013-01-14 09:03:00,
2013-01-14 04:08:00,25.1,20.9,30.19,West,273,8.0,16.0,84,0.00,,,0.00,0,Wunderground v.1.15,2013-01-14 09:08:00,
2013-01-14 04:13:00,25.0,21.1,30.19,West,267,7.0,15.0,85,0.00,,,0.00,0,Wunderground v.1.15,2013-01-14 09:13:00,
2013-01-14 04:18:00,24.8,20.9,30.19,West,273,9.0,15.0,85,0.00,,,0.00,0,Wunderground v.1.15,2013-01-14 09:18:00,
2013-01-14 04:23:00,24.8,20.9,30.19,WNW,284,7.0,14.0,85,0.00,,,0.00,0,Wunderground v.1.15,2013-01-14 09:23:00,
2013-01-14 04:28:00,24.8,20.9,30.19,West,274,5.0,14.0,85,0.00,,,0.00,0,Wunderground v.1.15,2013-01-14 09:28:00,
2013-01-14 04:30:00,24.2,20.1,30.23,WSW,247,6.0,16.0,84,0.00,,,-99.99,0,WeatherLink 6.0.0,2013-01-14 09:30:00,
2013-01-14 04:33:00,24.8,20.9,30.20,WSW,254,3.0,15.0,85,0.00,,,0.00,0,Wunderground v.1.15,2013-01-14 09:33:00,
2013-01-14 04:38:00,24.8,20.9,30.20,West,271,4.0,15.0,85,0.00,,,0.00,0,Wunderground v.1.15,2013-01-14 09:38:00,
2013-01-14 04:43:00,24.7,20.8,30.21,West,272,7.0,11.0,85,0.00,,,0.00,0,Wunderground v.1.15,2013-01-14 09:43:00,
2013-01-14 04:48:00,24.6,20.5,30.21,West,261,5.0,13.0,84,0.00,,,0.00,0,Wunderground v.1.15,2013-01-14 09:48:00,
2013-01-14 04:53:00,24.5,20.4,30.21,WSW,250,6.0,14.0,84,0.00,,,0.00,0,Wunderground v.1.15,2013-01-14 09:53:00,
2013-01-14 04:58:00,24.5,20.4,30.21,West,263,5.0,14.0,84,0.00,,,0.00,0,Wunderground v.1.15,2013-01-14 09:58:00,
2013-01-14 05:00:00,23.9,19.5,30.25,West,270,6.0,17.0,83,0.00,,,-99.99,0,WeatherLink 6.0.0,2013-01-14 10:00:00,
2013-01-14 05:03:00,24.4,20.0,30.21,WSW,240,5.0,16.0,83,0.00,,,0.00,0,Wunderground v.1.15,2013-01-14 10:03:00,
2013-01-14 05:08:00,24.2,19.8,30.21,West,261,2.0,16.0,83,0.00,,,0.00,0,Wunderground v.1.15,2013-01-14 10:08:00,
2013-01-14 05:13:00,24.2,19.8,30.21,WSW,237,3.0,11.0,83,0.00,,,0.00,0,Wunderground v.1.15,2013-01-14 10:13:00,
2013-01-14 05:18:00,24.1,19.7,30.22,WSW,255,11.0,14.0,83,0.00,,,0.00,0,Wunderground v.1.15,2013-01-14 10:18:00,
2013-01-14 05:24:00,24.1,20.0,30.22,West,271,4.0,15.0,84,0.00,,,0.00,0,Wunderground v.1.15,2013-01-14 10:24:00,
2013-01-14 05:29:00,24.1,20.0,30.22,WNW,302,8.0,15.0,84,0.00,,,0.00,0,Wunderground v.1.15,2013-01-14 10:29:00,
2013-01-14 05:30:00,23.6,18.9,30.26,West,270,7.0,19.0,82,0.00,,,-99.99,0,WeatherLink 6.0.0,2013-01-14 10:30:00,
2013-01-14 05:34:00,24.1,20.0,30.23,West,259,4.0,12.0,84,0.00,,,0.00,0,Wunderground v.1.15,2013-01-14 10:34:00,
2013-01-14 05:39:00,24.0,19.6,30.23,West,273,10.0,17.0,83,0.00,,,0.00,0,Wunderground v.1.15,2013-01-14 10:39:00,
2013-01-14 05:44:00,23.9,19.5,30.23,West,271,5.0,15.0,83,0.00,,,0.00,0,Wunderground v.1.15,2013-01-14 10:44:00,
2013-01-14 05:49:00,23.8,19.7,30.24,WSW,240,4.0,15.0,84,0.00,,,0.00,0,Wunderground v.1.15,2013-01-14 10:49:00,
2013-01-14 05:54:00,23.8,19.4,30.24,WNW,282,3.0,12.0,83,0.00,,,0.00,0,Wunderground v.1.15,2013-01-14 10:54:00,
2013-01-14 05:59:00,23.7,19.3,30.24,WNW,293,6.0,16.0,83,0.00,,,0.00,0,Wunderground v.1.15,2013-01-14 10:59:00,
2013-01-14 06:00:00,23.5,19.1,30.28,West,270,7.0,19.0,83,0.00,,,-99.99,0,WeatherLink 6.0.0,2013-01-14 11:00:00,
2013-01-14 06:04:00,23.7,19.3,30.25,West,261,5.0,12.0,83,0.00,,,0.00,0,Wunderground v.1.15,2013-01-14 11:04:00,
2013-01-14 06:09:00,23.7,19.3,30.25,West,268,7.0,16.0,83,0.00,,,0.00,0,Wunderground v.1.15,2013-01-14 11:09:00,
2013-01-14 06:14:00,23.6,19.2,30.25,NW,317,5.0,19.0,83,0.00,,,0.00,0,Wunderground v.1.15,2013-01-14 11:14:00,
2013-01-14 06:19:00,23.5,19.1,30.25,West,266,11.0,19.0,83,0.00,,,0.00,0,Wunderground v.1.15,2013-01-14 11:19:00,
2013-01-14 06:24:00,23.5,18.8,30.26,NW,304,3.0,13.0,82,0.00,,,0.00,0,Wunderground v.1.15,2013-01-14 11:24:00,
2013-01-14 06:29:00,23.5,18.8,30.26,WNW,288,3.0,17.0,82,0.00,,,0.00,0,Wunderground v.1.15,2013-01-14 11:29:00,
2013-01-14 06:30:00,23.6,19.2,30.29,West,270,7.0,19.0,83,0.00,,,-99.99,0,WeatherLink 6.0.0,2013-01-14 11:30:00,
2013-01-14 06:34:00,23.5,19.1,30.27,WNW,288,3.0,14.0,83,0.00,,,0.00,0,Wunderground v.1.15,2013-01-14 11:34:00,
2013-01-14 06:39:00,23.6,18.9,30.27,West,265,9.0,14.0,82,0.00,,,0.00,0,Wunderground v.1.15,2013-01-14 11:39:00,
2013-01-14 06:44:00,23.5,18.8,30.27,West,261,10.0,14.0,82,0.00,,,0.00,0,Wunderground v.1.15,2013-01-14 11:44:00,
2013-01-14 06:49:00,23.5,18.8,30.27,West,271,12.0,17.0,82,0.00,,,0.00,0,Wunderground v.1.15,2013-01-14 11:49:00,
2013-01-14 06:54:00,23.6,19.2,30.27,West,274,6.0,14.0,83,0.00,,,0.00,0,Wunderground v.1.15,2013-01-14 11:54:00,
2013-01-14 06:59:00,23.6,18.9,30.27,WNW,282,8.0,19.0,82,0.00,,,0.00,0,Wunderground v.1.15,2013-01-14 11:59:00,
2013-01-14 07:00:00,23.6,18.9,30.31,West,270,6.0,17.0,82,0.00,,,-99.99,0,WeatherLink 6.0.0,2013-01-14 12:00:00,
2013-01-14 07:04:00,23.7,19.3,30.28,SW,232,5.0,14.0,83,0.00,,,0.00,0,Wunderground v.1.15,2013-01-14 12:04:00,
2013-01-14 07:09:00,23.6,18.9,30.29,WSW,257,9.0,19.0,82,0.00,,,0.00,0,Wunderground v.1.15,2013-01-14 12:09:00,
2013-01-14 07:14:00,23.6,18.9,30.28,West,277,4.0,16.0,82,0.00,,,0.00,0,Wunderground v.1.15,2013-01-14 12:14:00,
2013-01-14 07:19:00,23.7,19.0,30.29,West,270,5.0,16.0,82,0.00,,,0.00,0,Wunderground v.1.15,2013-01-14 12:19:00,
2013-01-14 07:24:00,23.7,19.0,30.29,West,263,15.0,15.0,82,0.00,,,0.00,0,Wunderground v.1.15,2013-01-14 12:24:00,
2013-01-14 07:29:00,23.7,19.3,30.29,West,271,10.0,15.0,83,0.00,,,0.00,0,Wunderground v.1.15,2013-01-14 12:29:00,
2013-01-14 07:30:00,22.8,17.8,30.33,West,270,7.0,17.0,81,0.00,,,-99.99,7,WeatherLink 6.0.0,2013-01-14 12:30:00,
2013-01-14 07:34:00,23.8,19.4,30.30,West,280,10.0,10.0,83,0.00,,,0.00,0,Wunderground v.1.15,2013-01-14 12:34:00,
2013-01-14 07:39:00,23.8,19.4,30.31,WNW,294,6.0,17.0,83,0.00,,,0.00,0,Wunderground v.1.15,2013-01-14 12:39:00,
2013-01-14 07:44:00,23.7,19.3,30.30,WSW,252,4.0,14.0,83,0.00,,,0.00,0,Wunderground v.1.15,2013-01-14 12:44:00,
2013-01-14 07:49:00,23.4,18.7,30.30,WNW,295,3.0,15.0,82,0.00,,,0.00,0,Wunderground v.1.15,2013-01-14 12:49:00,
2013-01-14 07:55:00,23.3,18.6,30.31,WNW,292,6.0,12.0,82,0.00,,,0.00,0,Wunderground v.1.15,2013-01-14 12:55:00,
2013-01-14 08:00:00,23.3,18.9,30.31,WSW,252,8.0,10.0,83,0.00,,,0.00,0,Wunderground v.1.15,2013-01-14 13:00:00,
2013-01-14 08:05:00,23.1,18.4,30.31,West,275,8.0,14.0,82,0.00,,,0.00,0,Wunderground v.1.15,2013-01-14 13:05:00,
2013-01-14 08:10:00,23.0,18.6,30.31,West,272,6.0,10.0,83,0.00,,,0.00,5,Wunderground v.1.15,2013-01-14 13:10:00,
2013-01-14 08:15:00,22.8,17.8,30.32,WNW,293,4.0,17.0,81,0.00,,,0.00,7,Wunderground v.1.15,2013-01-14 13:15:00,
2013-01-14 08:20:00,22.7,17.7,30.32,WSW,255,6.0,10.0,81,0.00,,,0.00,9,Wunderground v.1.15,2013-01-14 13:20:00,
2013-01-14 08:25:00,22.6,17.6,30.33,West,271,10.0,13.0,81,0.00,,,0.00,14,Wunderground v.1.15,2013-01-14 13:25:00,
2013-01-14 08:30:00,22.5,17.5,30.33,West,273,4.0,7.0,81,0.00,,,0.00,16,Wunderground v.1.15,2013-01-14 13:30:00,
2013-01-14 08:35:00,22.4,17.2,30.34,WSW,244,6.0,15.0,80,0.00,,,0.00,19,Wunderground v.1.15,2013-01-14 13:35:00,
2013-01-14 08:40:00,22.2,17.0,30.34,West,271,4.0,7.0,80,0.00,,,0.00,19,Wunderground v.1.15,2013-01-14 13:40:00,
2013-01-14 08:45:00,22.3,17.1,30.35,WSW,249,4.0,10.0,80,0.00,,,0.00,23,Wunderground v.1.15,2013-01-14 13:45:00,
2013-01-14 08:51:00,22.3,17.1,30.35,West,280,2.0,8.0,80,0.00,,,0.00,26,Wunderground v.1.15,2013-01-14 13:51:00,
2013-01-14 08:56:00,22.3,17.1,30.35,West,279,5.0,12.0,80,0.00,,,0.00,40,Wunderground v.1.15,2013-01-14 13:56:00,
2013-01-14 09:00:00,22.4,16.6,30.38,West,270,6.0,17.0,78,0.00,,,-99.99,93,WeatherLink 6.0.0,2013-01-14 14:00:00,
2013-01-14 09:01:00,22.2,16.4,30.34,West,275,6.0,16.0,78,0.00,,,0.00,49,Wunderground v.1.15,2013-01-14 14:01:00,
2013-01-14 09:06:00,22.1,16.3,30.34,WSW,248,3.0,16.0,78,0.00,,,0.00,74,Wunderground v.1.15,2013-01-14 14:06:00,
2013-01-14 09:11:00,22.4,16.6,30.34,West,265,11.0,11.0,78,0.00,,,0.00,70,Wunderground v.1.15,2013-01-14 14:11:00,
2013-01-14 09:16:00,22.5,16.4,30.35,West,279,12.0,12.0,77,0.00,,,0.00,67,Wunderground v.1.15,2013-01-14 14:16:00,
2013-01-14 09:21:00,22.5,16.7,30.35,West,267,8.0,10.0,78,0.00,,,0.00,67,Wunderground v.1.15,2013-01-14 14:21:00,
2013-01-14 09:26:00,22.4,16.6,30.36,WNW,282,4.0,14.0,78,0.00,,,0.00,77,Wunderground v.1.15,2013-01-14 14:26:00,
2013-01-14 09:30:00,22.7,17.2,30.39,West,270,5.0,13.0,79,0.00,,,-99.99,86,WeatherLink 6.0.0,2013-01-14 14:30:00,
2013-01-14 09:31:00,22.3,16.2,30.36,NW,322,4.0,13.0,77,0.00,,,0.00,100,Wunderground v.1.15,2013-01-14 14:31:00,
2013-01-14 09:36:00,22.2,16.1,30.37,WNW,298,5.0,15.0,77,0.00,,,0.00,90,Wunderground v.1.15,2013-01-14 14:36:00,
2013-01-14 09:41:00,22.2,16.1,30.37,WNW,288,5.0,11.0,77,0.00,,,0.00,100,Wunderground v.1.15,2013-01-14 14:41:00,
2013-01-14 09:46:00,22.4,16.6,30.37,WNW,282,7.0,12.0,78,0.00,,,0.00,97,Wunderground v.1.15,2013-01-14 14:46:00,
2013-01-14 09:51:00,22.5,16.7,30.38,West,261,4.0,14.0,78,0.00,,,0.00,88,Wunderground v.1.15,2013-01-14 14:51:00,
2013-01-14 09:56:00,22.5,16.7,30.38,WSW,238,4.0,14.0,78,0.00,,,0.00,91,Wunderground v.1.15,2013-01-14 14:56:00,
2013-01-14 10:00:00,22.9,17.4,30.39,West,270,4.0,12.0,79,0.00,,,-99.99,100,WeatherLink 6.0.0,2013-01-14 15:00:00,
2013-01-14 10:01:00,22.6,16.8,30.38,SW,228,8.0,13.0,78,0.00,,,0.00,109,Wunderground v.1.15,2013-01-14 15:01:00,
2013-01-14 10:06:00,22.6,16.8,30.38,West,271,6.0,13.0,78,0.00,,,0.00,102,Wunderground v.1.15,2013-01-14 15:06:00,
2013-01-14 10:11:00,22.6,16.8,30.38,West,269,6.0,7.0,78,0.00,,,0.00,79,Wunderground v.1.15,2013-01-14 15:11:00,
2013-01-14 10:16:00,22.7,16.9,30.38,West,279,2.0,11.0,78,0.00,,,0.00,72,Wunderground v.1.15,2013-01-14 15:16:00,
2013-01-14 10:21:00,22.7,17.2,30.38,WSW,238,4.0,7.0,79,0.00,,,0.00,81,Wunderground v.1.15,2013-01-14 15:21:00,
2013-01-14 10:26:00,22.7,17.2,30.38,WNW,285,4.0,9.0,79,0.00,,,0.00,84,Wunderground v.1.15,2013-01-14 15:26:00,
2013-01-14 10:30:00,23.4,16.9,30.39,West,270,5.0,14.0,76,0.00,,,-99.99,156,WeatherLink 6.0.0,2013-01-14 15:30:00,
2013-01-14 10:31:00,22.9,17.4,30.39,WNW,286,7.0,11.0,79,0.00,,,0.00,81,Wunderground v.1.15,2013-01-14 15:31:00,
2013-01-14 10:36:00,22.9,17.1,30.39,West,264,1.0,11.0,78,0.00,,,0.00,74,Wunderground v.1.15,2013-01-14 15:36:00,
2013-01-14 10:41:00,22.9,17.1,30.39,West,259,6.0,9.0,78,0.00,,,0.00,79,Wunderground v.1.15,2013-01-14 15:41:00,
2013-01-14 10:46:00,22.8,17.0,30.39,West,259,3.0,12.0,78,0.00,,,0.00,90,Wunderground v.1.15,2013-01-14 15:46:00,
2013-01-14 10:51:00,22.9,17.4,30.39,West,261,3.0,6.0,79,0.00,,,0.00,125,Wunderground v.1.15,2013-01-14 15:51:00,
2013-01-14 10:56:00,23.1,17.3,30.39,West,269,11.0,11.0,78,0.00,,,0.00,123,Wunderground v.1.15,2013-01-14 15:56:00,
2013-01-14 11:00:00,23.7,16.9,30.37,West,270,4.0,12.0,75,0.00,,,-99.99,175,WeatherLink 6.0.0,2013-01-14 16:00:00,
2013-01-14 11:01:00,23.3,17.7,30.39,West,270,5.0,5.0,79,0.00,,,0.00,162,Wunderground v.1.15,2013-01-14 16:01:00,
2013-01-14 11:06:00,23.5,17.3,30.39,West,261,11.0,13.0,77,0.00,,,0.00,142,Wunderground v.1.15,2013-01-14 16:06:00,
2013-01-14 11:11:00,23.2,16.8,30.39,West,266,6.0,8.0,76,0.00,,,0.00,141,Wunderground v.1.15,2013-01-14 16:11:00,
2013-01-14 11:16:00,23.3,17.2,30.39,West,276,1.0,8.0,77,0.00,,,0.00,139,Wunderground v.1.15,2013-01-14 16:16:00,
2013-01-14 11:21:00,23.5,17.6,30.39,WNW,296,1.0,4.0,78,0.00,,,0.00,134,Wunderground v.1.15,2013-01-14 16:21:00,
2013-01-14 11:26:00,23.5,16.7,30.38,NW,319,8.0,14.0,75,0.00,,,0.00,158,Wunderground v.1.15,2013-01-14 16:26:00,
2013-01-14 11:30:00,24.0,16.9,30.34,WNW,292,4.0,10.0,74,0.00,,,-99.99,219,WeatherLink 6.0.0,2013-01-14 16:30:00,
2013-01-14 11:31:00,23.5,17.0,30.38,West,278,6.0,10.0,76,0.00,,,0.00,218,Wunderground v.1.15,2013-01-14 16:31:00,
2013-01-14 11:36:00,23.7,17.2,30.38,WNW,288,5.0,10.0,76,0.00,,,0.00,156,Wunderground v.1.15,2013-01-14 16:36:00,
2013-01-14 11:41:00,23.8,17.0,30.38,West,274,6.0,7.0,75,0.00,,,0.00,156,Wunderground v.1.15,2013-01-14 16:41:00,
2013-01-14 11:46:00,23.8,17.0,30.37,WNW,294,2.0,10.0,75,0.00,,,0.00,155,Wunderground v.1.15,2013-01-14 16:46:00,
2013-01-14 11:51:00,23.8,17.0,30.37,WNW,292,5.0,7.0,75,0.00,,,0.00,142,Wunderground v.1.15,2013-01-14 16:51:00,
2013-01-14 11:56:00,23.7,16.9,30.37,WNW,295,6.0,12.0,75,0.00,,,0.00,207,Wunderground v.1.15,2013-01-14 16:56:00,
2013-01-14 12:00:00,24.5,17.4,30.35,West,270,3.0,8.0,74,0.00,,,-99.99,257,WeatherLink 6.0.0,2013-01-14 17:00:00,
2013-01-14 12:01:00,23.7,16.9,30.37,West,266,6.0,8.0,75,0.00,,,0.00,225,Wunderground v.1.15,2013-01-14 17:01:00,
2013-01-14 12:06:00,23.8,17.3,30.36,West,267,4.0,8.0,76,0.00,,,0.00,230,Wunderground v.1.15,2013-01-14 17:06:00,
2013-01-14 12:11:00,24.1,17.6,30.36,WNW,288,1.0,5.0,76,0.00,,,0.00,169,Wunderground v.1.15,2013-01-14 17:11:00,
2013-01-14 12:16:00,24.2,17.7,30.35,WNW,284,10.0,10.0,76,0.00,,,0.00,174,Wunderground v.1.15,2013-01-14 17:16:00,
2013-01-14 12:21:00,24.1,17.6,30.35,WSW,244,4.0,5.0,76,0.00,,,0.00,255,Wunderground v.1.15,2013-01-14 17:21:00,
2013-01-14 12:26:00,24.2,17.1,30.34,WNW,284,5.0,9.0,74,0.00,,,0.00,251,Wunderground v.1.15,2013-01-14 17:26:00,
2013-01-14 12:30:00,25.9,18.4,30.35,West,270,4.0,9.0,73,0.00,,,-99.99,331,WeatherLink 6.0.0,2013-01-14 17:30:00,
2013-01-14 12:31:00,24.3,17.5,30.34,WNW,296,2.0,4.0,75,0.00,,,0.00,225,Wunderground v.1.15,2013-01-14 17:31:00,
2013-01-14 12:36:00,24.6,17.8,30.35,West,279,5.0,7.0,75,0.00,,,0.00,232,Wunderground v.1.15,2013-01-14 17:36:00,
2013-01-14 12:41:00,24.4,17.0,30.35,WNW,289,3.0,8.0,73,0.00,,,0.00,148,Wunderground v.1.15,2013-01-14 17:41:00,
2013-01-14 12:46:00,24.3,17.5,30.36,SW,233,3.0,8.0,75,0.00,,,0.00,211,Wunderground v.1.15,2013-01-14 17:46:00,
2013-01-14 12:51:00,24.4,17.6,30.36,WNW,303,2.0,6.0,75,0.00,,,0.00,262,Wunderground v.1.15,2013-01-14 17:51:00,
2013-01-14 12:56:00,24.9,18.1,30.35,West,268,4.0,7.0,75,0.00,,,0.00,234,Wunderground v.1.15,2013-01-14 17:56:00,
2013-01-14 13:00:00,24.9,17.8,30.36,West,270,3.0,7.0,74,0.00,,,-99.99,187,WeatherLink 6.0.0,2013-01-14 18:00:00,
2013-01-14 13:01:00,25.4,18.6,30.35,West,261,2.0,5.0,75,0.00,,,0.00,650,Wunderground v.1.15,2013-01-14 18:01:00,
2013-01-14 13:06:00,25.9,18.4,30.35,WSW,258,4.0,8.0,73,0.00,,,0.00,436,Wunderground v.1.15,2013-01-14 18:06:00,
2013-01-14 13:11:00,26.5,19.3,30.34,West,278,4.0,7.0,74,0.00,,,0.00,418,Wunderground v.1.15,2013-01-14 18:11:00,
2013-01-14 13:16:00,26.8,19.3,30.34,West,279,5.0,7.0,73,0.00,,,0.00,223,Wunderground v.1.15,2013-01-14 18:16:00,
2013-01-14 13:21:00,25.7,17.6,30.35,West,269,8.0,8.0,71,0.00,,,0.00,200,Wunderground v.1.15,2013-01-14 18:21:00,
2013-01-14 13:26:00,25.3,17.5,30.35,West,279,3.0,8.0,72,0.00,,,0.00,207,Wunderground v.1.15,2013-01-14 18:26:00,
2013-01-14 13:30:00,25.3,17.5,30.38,West,270,2.0,6.0,72,0.00,,,-99.99,146,WeatherLink 6.0.0,2013-01-14 18:30:00,
2013-01-14 13:31:00,25.1,17.7,30.35,NW,308,2.0,6.0,73,0.00,,,0.00,181,Wunderground v.1.15,2013-01-14 18:31:00,
2013-01-14 13:36:00,25.0,17.6,30.36,WSW,250,2.0,7.0,73,0.00,,,0.00,186,Wunderground v.1.15,2013-01-14 18:36:00,
2013-01-14 13:41:00,24.9,17.5,30.36,West,279,3.0,3.0,73,0.00,,,0.00,158,Wunderground v.1.15,2013-01-14 18:41:00,
2013-01-14 13:46:00,24.8,17.1,30.36,West,278,2.0,7.0,72,0.00,,,0.00,190,Wunderground v.1.15,2013-01-14 18:46:00,
2013-01-14 13:51:00,24.7,17.3,30.36,West,268,3.0,4.0,73,0.00,,,0.00,237,Wunderground v.1.15,2013-01-14 18:51:00,
2013-01-14 13:56:00,25.0,17.9,30.36,SW,222,1.0,5.0,74,0.00,,,0.00,199,Wunderground v.1.15,2013-01-14 18:56:00,
2013-01-14 14:00:00,25.2,17.1,30.39,West,270,3.0,8.0,71,0.00,,,-99.99,169,WeatherLink 6.0.0,2013-01-14 19:00:00,
2013-01-14 14:01:00,25.4,17.9,30.36,WNW,288,1.0,4.0,73,0.00,,,0.00,149,Wunderground v.1.15,2013-01-14 19:01:00,
2013-01-14 14:06:00,25.5,18.0,30.37,NW,325,2.0,5.0,73,0.00,,,0.00,146,Wunderground v.1.15,2013-01-14 19:06:00,
2013-01-14 14:11:00,25.4,17.6,30.37,SW,236,3.0,6.0,72,0.00,,,0.00,160,Wunderground v.1.15,2013-01-14 19:11:00,
2013-01-14 14:16:00,25.1,17.3,30.37,West,273,1.0,6.0,72,0.00,,,0.00,144,Wunderground v.1.15,2013-01-14 19:16:00,
2013-01-14 14:21:00,25.3,17.9,30.37,West,279,2.0,4.0,73,0.00,,,0.00,153,Wunderground v.1.15,2013-01-14 19:21:00,
2013-01-14 14:26:00,25.1,17.0,30.38,WNW,284,0.0,6.0,71,0.00,,,0.00,127,Wunderground v.1.15,2013-01-14 19:26:00,
2013-01-14 14:30:00,25.0,17.9,30.41,West,270,2.0,8.0,74,0.00,,,-99.99,104,WeatherLink 6.0.0,2013-01-14 19:30:00,
2013-01-14 14:31:00,24.9,16.8,30.38,NW,318,2.0,6.0,71,0.00,,,0.00,134,Wunderground v.1.15,2013-01-14 19:31:00,
2013-01-14 14:36:00,24.8,17.1,30.38,NW,315,0.0,7.0,72,0.00,,,0.00,207,Wunderground v.1.15,2013-01-14 19:36:00,
2013-01-14 14:41:00,25.1,17.3,30.39,SW,228,3.0,8.0,72,0.00,,,0.00,158,Wunderground v.1.15,2013-01-14 19:41:00,
2013-01-14 14:46:00,25.4,17.6,30.39,West,263,3.0,8.0,72,0.00,,,0.00,197,Wunderground v.1.15,2013-01-14 19:46:00,
2013-01-14 14:51:00,25.5,17.7,30.39,West,261,2.0,8.0,72,0.00,,,0.00,165,Wunderground v.1.15,2013-01-14 19:51:00,
2013-01-14 14:56:00,25.5,17.4,30.39,WSW,247,4.0,8.0,71,0.00,,,0.00,171,Wunderground v.1.15,2013-01-14 19:56:00,
2013-01-14 15:00:00,24.7,17.0,30.41,West,270,3.0,7.0,72,0.00,,,-99.99,71,WeatherLink 6.0.0,2013-01-14 20:00:00,
2013-01-14 15:01:00,25.3,17.2,30.39,SW,228,4.0,4.0,71,0.00,,,0.00,144,Wunderground v.1.15,2013-01-14 20:01:00,
2013-01-14 15:06:00,25.2,17.4,30.39,West,271,2.0,5.0,72,0.00,,,0.00,127,Wunderground v.1.15,2013-01-14 20:06:00,
2013-01-14 15:11:00,25.0,17.2,30.39,West,280,2.0,6.0,72,0.00,,,0.00,98,Wunderground v.1.15,2013-01-14 20:11:00,
2013-01-14 15:16:00,24.8,17.1,30.39,WNW,284,2.0,6.0,72,0.00,,,0.00,102,Wunderground v.1.15,2013-01-14 20:16:00,
2013-01-14 15:21:00,24.7,17.3,30.40,West,277,1.0,4.0,73,0.00,,,0.00,95,Wunderground v.1.15,2013-01-14 20:21:00,
2013-01-14 15:26:00,24.8,17.4,30.40,West,273,1.0,7.0,73,0.00,,,0.00,77,Wunderground v.1.15,2013-01-14 20:26:00,
2013-01-14 15:30:00,24.5,17.4,30.42,West,270,2.0,7.0,74,0.00,,,-99.99,66,WeatherLink 6.0.0,2013-01-14 20:30:00,
2013-01-14 15:31:00,24.9,17.5,30.41,West,281,3.0,5.0,73,0.00,,,0.00,67,Wunderground v.1.15,2013-01-14 20:31:00,
2013-01-14 15:36:00,24.7,17.3,30.41,NW,311,3.0,7.0,73,0.00,,,0.00,56,Wunderground v.1.15,2013-01-14 20:36:00,
2013-01-14 15:41:00,24.7,17.3,30.40,WSW,238,5.0,5.0,73,0.00,,,0.00,65,Wunderground v.1.15,2013-01-14 20:41:00,
2013-01-14 15:46:00,24.6,17.2,30.40,WNW,287,4.0,6.0,73,0.00,,,0.00,70,Wunderground v.1.15,2013-01-14 20:46:00,
2013-01-14 15:51:00,24.6,17.2,30.40,WSW,258,3.0,6.0,73,0.00,,,0.00,74,Wunderground v.1.15,2013-01-14 20:51:00,
2013-01-14 15:56:00,24.7,17.3,30.41,NW,304,5.0,7.0,73,0.00,,,0.00,81,Wunderground v.1.15,2013-01-14 20:56:00,
2013-01-14 16:00:00,24.4,17.3,30.45,WSW,247,2.0,7.0,74,0.00,,,-99.99,27,WeatherLink 6.0.0,2013-01-14 21:00:00,
2013-01-14 16:01:00,24.4,16.7,30.41,West,277,6.0,6.0,72,0.00,,,0.00,90,Wunderground v.1.15,2013-01-14 21:01:00,
2013-01-14 16:06:00,24.5,17.1,30.41,SW,234,2.0,6.0,73,0.00,,,0.00,79,Wunderground v.1.15,2013-01-14 21:06:00,
2013-01-14 16:11:00,24.6,17.2,30.42,WSW,251,3.0,5.0,73,0.00,,,0.00,76,Wunderground v.1.15,2013-01-14 21:11:00,
2013-01-14 16:17:00,24.4,17.0,30.43,West,271,2.0,7.0,73,0.00,,,0.00,63,Wunderground v.1.15,2013-01-14 21:17:00,
2013-01-14 16:22:00,24.4,17.3,30.43,West,268,3.0,6.0,74,0.00,,,0.00,54,Wunderground v.1.15,2013-01-14 21:22:00,
2013-01-14 16:27:00,24.4,17.0,30.42,WNW,284,1.0,7.0,73,0.00,,,0.00,51,Wunderground v.1.15,2013-01-14 21:27:00,
2013-01-14 16:30:00,24.3,17.5,30.43,West,270,3.0,7.0,75,0.00,,,-99.99,4,WeatherLink 6.0.0,2013-01-14 21:30:00,
2013-01-14 16:32:00,24.5,17.4,30.42,WSW,256,2.0,3.0,74,0.00,,,0.00,49,Wunderground v.1.15,2013-01-14 21:32:00,
2013-01-14 16:37:00,24.5,17.4,30.42,WSW,254,2.0,4.0,74,0.00,,,0.00,40,Wunderground v.1.15,2013-01-14 21:37:00,
2013-01-14 16:42:00,24.4,17.3,30.42,WSW,240,4.0,5.0,74,0.00,,,0.00,30,Wunderground v.1.15,2013-01-14 21:42:00,
2013-01-14 16:47:00,24.4,17.3,30.43,WSW,241,2.0,5.0,74,0.00,,,0.00,19,Wunderground v.1.15,2013-01-14 21:47:00,
2013-01-14 16:52:00,24.3,17.2,30.44,WSW,240,1.0,2.0,74,0.00,,,0.00,21,Wunderground v.1.15,2013-01-14 21:52:00,
2013-01-14 16:57:00,24.3,17.2,30.44,West,265,2.0,6.0,74,0.00,,,0.00,14,Wunderground v.1.15,2013-01-14 21:57:00,
2013-01-14 17:00:00,24.2,17.7,30.44,West,270,1.0,7.0,76,0.00,,,-99.99,0,WeatherLink 6.0.0,2013-01-14 22:00:00,
2013-01-14 17:02:00,24.3,17.2,30.45,West,270,2.0,7.0,74,0.00,,,0.00,12,Wunderground v.1.15,2013-01-14 22:02:00,
2013-01-14 17:07:00,24.3,17.2,30.44,West,273,2.0,7.0,74,0.00,,,0.00,7,Wunderground v.1.15,2013-01-14 22:07:00,
2013-01-14 17:12:00,24.3,17.5,30.45,West,278,1.0,5.0,75,0.00,,,0.00,5,Wunderground v.1.15,2013-01-14 22:12:00,
2013-01-14 17:17:00,24.3,17.5,30.44,WNW,286,5.0,5.0,75,0.00,,,0.00,5,Wunderground v.1.15,2013-01-14 22:17:00,
2013-01-14 17:22:00,24.2,17.4,30.43,West,275,3.0,4.0,75,0.00,,,0.00,0,Wunderground v.1.15,2013-01-14 22:22:00,
2013-01-14 17:27:00,24.1,17.3,30.43,West,259,1.0,6.0,75,0.00,,,0.00,0,Wunderground v.1.15,2013-01-14 22:27:00,
2013-01-14 17:30:00,24.0,17.8,30.43,West,270,2.0,6.0,77,0.00,,,-99.99,0,WeatherLink 6.0.0,2013-01-14 22:30:00,
2013-01-14 17:32:00,24.1,17.3,30.43,West,267,1.0,6.0,75,0.00,,,0.00,0,Wunderground v.1.15,2013-01-14 22:32:00,
2013-01-14 17:37:00,24.0,17.5,30.44,West,277,1.0,6.0,76,0.00,,,0.00,0,Wunderground v.1.15,2013-01-14 22:37:00,
2013-01-14 17:42:00,24.2,17.7,30.44,West,277,1.0,3.0,76,0.00,,,0.00,0,Wunderground v.1.15,2013-01-14 22:42:00,
2013-01-14 17:47:00,24.2,17.7,30.44,West,259,1.0,3.0,76,0.00,,,0.00,0,Wunderground v.1.15,2013-01-14 22:47:00,
2013-01-14 17:52:00,24.2,17.7,30.44,West,281,3.0,4.0,76,0.00,,,0.00,0,Wunderground v.1.15,2013-01-14 22:52:00,
2013-01-14 17:57:00,24.1,17.6,30.44,WSW,257,1.0,5.0,76,0.00,,,0.00,0,Wunderground v.1.15,2013-01-14 22:57:00,
2013-01-14 18:00:00,23.8,17.9,30.43,West,270,2.0,6.0,78,0.00,,,-99.99,0,WeatherLink 6.0.0,2013-01-14 23:00:00,
2013-01-14 18:02:00,24.1,17.6,30.43,WSW,257,0.0,2.0,76,0.00,,,0.00,0,Wunderground v.1.15,2013-01-14 23:02:00,
2013-01-14 18:07:00,24.1,17.6,30.43,NW,307,2.0,5.0,76,0.00,,,0.00,0,Wunderground v.1.15,2013-01-14 23:07:00,
2013-01-14 18:12:00,24.0,17.5,30.44,WNW,287,3.0,4.0,76,0.00,,,0.00,0,Wunderground v.1.15,2013-01-14 23:12:00,
2013-01-14 18:17:00,24.0,17.8,30.44,WNW,296,0.0,5.0,77,0.00,,,0.00,0,Wunderground v.1.15,2013-01-14 23:17:00,
2013-01-14 18:22:00,23.9,17.7,30.44,West,275,1.0,3.0,77,0.00,,,0.00,0,Wunderground v.1.15,2013-01-14 23:22:00,
2013-01-14 18:27:00,23.9,17.7,30.43,West,275,1.0,3.0,77,0.00,,,0.00,0,Wunderground v.1.15,2013-01-14 23:27:00,
2013-01-14 18:30:00,23.6,17.7,30.43,West,270,2.0,7.0,78,0.00,,,-99.99,0,WeatherLink 6.0.0,2013-01-14 23:30:00,
2013-01-14 18:32:00,23.9,17.7,30.43,West,263,1.0,4.0,77,0.00,,,0.00,0,Wunderground v.1.15,2013-01-14 23:32:00,
2013-01-14 18:37:00,23.8,17.6,30.43,WNW,283,3.0,6.0,77,0.00,,,0.00,0,Wunderground v.1.15,2013-01-14 23:37:00,
2013-01-14 18:42:00,23.8,17.6,30.44,West,267,1.0,3.0,77,0.00,,,0.00,0,Wunderground v.1.15,2013-01-14 23:42:00,
2013-01-14 18:47:00,23.8,17.6,30.44,West,270,2.0,4.0,77,0.00,,,0.00,0,Wunderground v.1.15,2013-01-14 23:47:00,
2013-01-14 18:52:00,23.8,17.9,30.44,West,271,4.0,4.0,78,0.00,,,0.00,0,Wunderground v.1.15,2013-01-14 23:52:00,
2013-01-14 18:57:00,23.7,17.8,30.43,West,272,2.0,4.0,78,0.00,,,0.00,0,Wunderground v.1.15,2013-01-14 23:57:00,
2013-01-14 19:00:00,22.9,17.4,30.41,WNW,292,1.0,4.0,79,0.00,,,-99.99,0,WeatherLink 6.0.0,2013-01-15 00:00:00,
2013-01-14 19:02:00,23.7,18.1,30.43,West,262,3.0,3.0,79,0.00,,,0.00,0,Wunderground v.1.15,2013-01-15 00:02:00,
2013-01-14 19:07:00,23.7,17.5,30.43,WSW,247,3.0,7.0,77,0.00,,,0.00,0,Wunderground v.1.15,2013-01-15 00:07:00,
2013-01-14 19:12:00,23.6,17.7,30.43,WSW,258,0.0,3.0,78,0.00,,,0.00,0,Wunderground v.1.15,2013-01-15 00:12:00,
2013-01-14 19:17:00,23.6,17.7,30.42,WSW,258,0.0,3.0,78,0.00,,,0.00,0,Wunderground v.1.15,2013-01-15 00:17:00,
2013-01-14 19:22:00,23.5,17.6,30.42,West,263,2.0,4.0,78,0.00,,,0.00,0,Wunderground v.1.15,2013-01-15 00:22:00,
2013-01-14 19:27:00,23.4,17.6,30.43,West,266,0.0,5.0,78,0.00,,,0.00,0,Wunderground v.1.15,2013-01-15 00:27:00,
2013-01-14 19:30:00,21.7,16.8,30.41,WNW,292,1.0,5.0,81,0.00,,,-99.99,0,WeatherLink 6.0.0,2013-01-15 00:30:00,
2013-01-14 19:33:00,23.3,17.5,30.42,West,276,3.0,3.0,78,0.00,,,0.00,0,Wunderground v.1.15,2013-01-15 00:33:00,
2013-01-14 19:38:00,23.2,17.4,30.42,WNW,290,1.0,3.0,78,0.00,,,0.00,0,Wunderground v.1.15,2013-01-15 00:38:00,
2013-01-14 19:43:00,23.1,17.6,30.42,WNW,290,1.0,2.0,79,0.00,,,0.00,0,Wunderground v.1.15,2013-01-15 00:43:00,
2013-01-14 19:48:00,22.9,17.1,30.42,WNW,290,0.0,2.0,78,0.00,,,0.00,0,Wunderground v.1.15,2013-01-15 00:48:00,
2013-01-14 19:53:00,22.6,17.1,30.42,WNW,290,2.0,3.0,79,0.00,,,0.00,0,Wunderground v.1.15,2013-01-15 00:53:00,
2013-01-14 19:58:00,22.4,16.9,30.41,WSW,253,0.0,4.0,79,0.00,,,0.00,0,Wunderground v.1.15,2013-01-15 00:58:00,
2013-01-14 20:00:00,20.9,16.5,30.41,WNW,292,0.0,4.0,83,0.00,,,-99.99,0,WeatherLink 6.0.0,2013-01-15 01:00:00,
2013-01-14 20:03:00,22.1,16.9,30.42,NW,304,1.0,5.0,80,0.00,,,0.00,0,Wunderground v.1.15,2013-01-15 01:03:00,
2013-01-14 20:08:00,21.9,16.7,30.42,NW,304,0.0,5.0,80,0.00,,,0.00,0,Wunderground v.1.15,2013-01-15 01:08:00,
2013-01-14 20:13:00,21.7,16.5,30.41,WNW,302,2.0,3.0,80,0.00,,,0.00,0,Wunderground v.1.15,2013-01-15 01:13:00,
2013-01-14 20:18:00,21.7,16.8,30.41,WNW,301,2.0,3.0,81,0.00,,,0.00,0,Wunderground v.1.15,2013-01-15 01:18:00,
2013-01-14 20:23:00,21.6,16.7,30.41,WNW,301,1.0,2.0,81,0.00,,,0.00,0,Wunderground v.1.15,2013-01-15 01:23:00,
2013-01-14 20:28:00,21.5,16.6,30.41,WNW,301,0.0,2.0,81,0.00,,,0.00,0,Wunderground v.1.15,2013-01-15 01:28:00,
2013-01-14 20:30:00,19.7,15.9,30.41,North,-999,0.0,0.0,85,0.00,,,-99.99,0,WeatherLink 6.0.0,2013-01-15 01:30:00,
2013-01-14 20:33:00,21.3,16.4,30.41,WNW,286,0.0,4.0,81,0.00,,,0.00,0,Wunderground v.1.15,2013-01-15 01:33:00,
2013-01-14 20:38:00,21.2,16.3,30.41,WNW,286,0.0,4.0,81,0.00,,,0.00,0,Wunderground v.1.15,2013-01-15 01:38:00,
2013-01-14 20:43:00,21.1,16.5,30.41,WNW,286,0.0,1.0,82,0.00,,,0.00,0,Wunderground v.1.15,2013-01-15 01:43:00,
2013-01-14 20:48:00,20.9,16.3,30.41,WNW,286,0.0,1.0,82,0.00,,,0.00,0,Wunderground v.1.15,2013-01-15 01:48:00,
2013-01-14 20:53:00,20.6,16.0,30.41,WNW,286,0.0,0.0,82,0.00,,,0.00,0,Wunderground v.1.15,2013-01-15 01:53:00,
2013-01-14 20:58:00,20.4,16.1,30.41,WNW,286,0.0,0.0,83,0.00,,,0.00,0,Wunderground v.1.15,2013-01-15 01:58:00,
2013-01-14 21:00:00,19.0,15.8,30.41,North,-999,0.0,0.0,87,0.00,,,-99.99,0,WeatherLink 6.0.0,2013-01-15 02:00:00,
2013-01-14 21:03:00,20.2,15.9,30.41,WNW,286,0.0,0.0,83,0.00,,,0.00,0,Wunderground v.1.15,2013-01-15 02:03:00,
2013-01-14 21:08:00,19.9,15.8,30.41,WNW,286,0.0,0.0,84,0.00,,,0.00,0,Wunderground v.1.15,2013-01-15 02:08:00,
2013-01-14 21:13:00,19.8,15.7,30.41,WNW,286,0.0,0.0,84,0.00,,,0.00,0,Wunderground v.1.15,2013-01-15 02:13:00,
2013-01-14 21:18:00,19.6,15.8,30.41,WNW,286,0.0,0.0,85,0.00,,,0.00,0,Wunderground v.1.15,2013-01-15 02:18:00,
2013-01-14 21:23:00,19.5,15.7,30.41,WNW,286,0.0,0.0,85,0.00,,,0.00,0,Wunderground v.1.15,2013-01-15 02:23:00,
2013-01-14 21:28:00,19.4,15.6,30.41,WNW,286,0.0,0.0,85,0.00,,,0.00,0,Wunderground v.1.15,2013-01-15 02:28:00,
2013-01-14 21:30:00,18.5,15.5,30.39,WNW,292,0.0,2.0,88,0.00,,,-99.99,0,WeatherLink 6.0.0,2013-01-15 02:30:00,
2013-01-14 21:33:00,19.2,15.4,30.41,WNW,286,0.0,0.0,85,0.00,,,0.00,0,Wunderground v.1.15,2013-01-15 02:33:00,
2013-01-14 21:38:00,19.0,15.5,30.41,WNW,286,0.0,0.0,86,0.00,,,0.00,0,Wunderground v.1.15,2013-01-15 02:38:00,
2013-01-14 21:43:00,19.0,15.5,30.41,WNW,286,0.0,0.0,86,0.00,,,0.00,0,Wunderground v.1.15,2013-01-15 02:43:00,
2013-01-14 21:48:00,18.9,15.7,30.41,WNW,286,0.0,0.0,87,0.00,,,0.00,0,Wunderground v.1.15,2013-01-15 02:48:00,
2013-01-14 21:53:00,18.9,15.7,30.41,WNW,286,0.0,0.0,87,0.00,,,0.00,0,Wunderground v.1.15,2013-01-15 02:53:00,
2013-01-14 21:59:00,18.8,15.6,30.41,WNW,286,0.0,0.0,87,0.00,,,0.00,0,Wunderground v.1.15,2013-01-15 02:59:00,
2013-01-14 22:00:00,17.8,15.1,30.40,WNW,292,0.0,2.0,89,0.00,,,-99.99,0,WeatherLink 6.0.0,2013-01-15 03:00:00,
2013-01-14 22:04:00,18.6,15.4,30.40,WNW,286,0.0,2.0,87,0.00,,,0.00,0,Wunderground v.1.15,2013-01-15 03:04:00,
2013-01-14 22:09:00,18.6,15.4,30.40,WNW,286,0.0,2.0,87,0.00,,,0.00,0,Wunderground v.1.15,2013-01-15 03:09:00,
2013-01-14 22:14:00,18.5,15.5,30.40,WNW,286,0.0,1.0,88,0.00,,,0.00,0,Wunderground v.1.15,2013-01-15 03:14:00,
2013-01-14 22:19:00,18.4,15.4,30.40,WNW,286,0.0,1.0,88,0.00,,,0.00,0,Wunderground v.1.15,2013-01-15 03:19:00,
2013-01-14 22:24:00,18.3,15.3,30.39,WNW,286,0.0,0.0,88,0.00,,,0.00,0,Wunderground v.1.15,2013-01-15 03:24:00,
2013-01-14 22:29:00,18.2,15.2,30.39,WNW,286,0.0,0.0,88,0.00,,,0.00,0,Wunderground v.1.15,2013-01-15 03:29:00,
2013-01-14 22:30:00,17.4,15.0,30.40,North,-999,0.0,0.0,90,0.00,,,-99.99,0,WeatherLink 6.0.0,2013-01-15 03:30:00,
2013-01-14 22:34:00,18.0,15.0,30.39,WNW,286,0.0,2.0,88,0.00,,,0.00,0,Wunderground v.1.15,2013-01-15 03:34:00,
2013-01-14 22:39:00,17.9,14.9,30.39,WNW,286,0.0,2.0,88,0.00,,,0.00,0,Wunderground v.1.15,2013-01-15 03:39:00,
2013-01-14 22:44:00,17.9,15.2,30.39,WNW,286,0.0,0.0,89,0.00,,,0.00,0,Wunderground v.1.15,2013-01-15 03:44:00,
2013-01-14 22:49:00,17.7,15.0,30.40,WNW,286,0.0,1.0,89,0.00,,,0.00,0,Wunderground v.1.15,2013-01-15 03:49:00,
2013-01-14 22:54:00,17.7,15.0,30.40,WNW,286,0.0,0.0,89,0.00,,,0.00,0,Wunderground v.1.15,2013-01-15 03:54:00,
2013-01-14 22:59:00,17.7,15.0,30.40,WNW,286,0.0,0.0,89,0.00,,,0.00,0,Wunderground v.1.15,2013-01-15 03:59:00,
2013-01-14 23:00:00,17.1,14.7,30.41,North,-999,0.0,0.0,90,0.00,,,-99.99,0,WeatherLink 6.0.0,2013-01-15 04:00:00,
2013-01-14 23:04:00,17.7,15.0,30.40,WNW,286,0.0,0.0,89,0.00,,,0.00,0,Wunderground v.1.15,2013-01-15 04:04:00,
2013-01-14 23:09:00,17.6,14.9,30.40,WNW,286,0.0,0.0,89,0.00,,,0.00,0,Wunderground v.1.15,2013-01-15 04:09:00,
2013-01-14 23:14:00,17.5,14.8,30.40,WNW,286,0.0,0.0,89,0.00,,,0.00,0,Wunderground v.1.15,2013-01-15 04:14:00,
2013-01-14 23:19:00,17.3,14.6,30.40,WNW,286,0.0,0.0,89,0.00,,,0.00,0,Wunderground v.1.15,2013-01-15 04:19:00,
2013-01-14 23:24:00,17.3,14.9,30.40,WNW,286,0.0,0.0,90,0.00,,,0.00,0,Wunderground v.1.15,2013-01-15 04:24:00,
2013-01-14 23:29:00,17.3,14.9,30.40,WNW,286,0.0,0.0,90,0.00,,,0.00,0,Wunderground v.1.15,2013-01-15 04:29:00,
2013-01-14 23:30:00,16.6,14.2,30.41,North,-999,0.0,0.0,90,0.00,,,-99.99,0,WeatherLink 6.0.0,2013-01-15 04:30:00,
2013-01-14 23:34:00,17.3,14.9,30.41,WNW,286,0.0,0.0,90,0.00,,,0.00,0,Wunderground v.1.15,2013-01-15 04:34:00,
2013-01-14 23:39:00,17.2,14.8,30.41,WNW,286,0.0,0.0,90,0.00,,,0.00,0,Wunderground v.1.15,2013-01-15 04:39:00,
2013-01-14 23:44:00,17.0,14.6,30.41,WNW,286,0.0,0.0,90,0.00,,,0.00,0,Wunderground v.1.15,2013-01-15 04:44:00,
2013-01-14 23:49:00,17.0,14.6,30.41,WNW,286,0.0,0.0,90,0.00,,,0.00,0,Wunderground v.1.15,2013-01-15 04:49:00,
2013-01-14 23:54:00,17.1,14.7,30.40,WNW,286,0.0,0.0,90,0.00,,,0.00,0,Wunderground v.1.15,2013-01-15 04:54:00,
2013-01-14 23:59:00,17.0,14.6,30.41,WNW,286,0.0,0.0,90,0.00,,,0.00,0,Wunderground v.1.15,2013-01-15 04:59:00,